Terminal Aerodrome Forecast
Issued by NWS

Home | Current Version | Previous Version | Text Only | Print | Product List | Glossary On
Versions: 1 2 3 4 5 6 7 8 9 10 11 12 13 14 15 16 17 18
000
FTUS46 KOTX 232337
TAFSFF
TAF
KSFF 232337Z 2400/2424 26010G23KT P6SM SCT060 BKN080 OVC100
     FM240500 16007KT P6SM -RA BKN030 OVC050
     FM241200 17008KT P6SM -RA BKN018 OVC030
     FM241800 22010G18KT P6SM VCSH SCT030 BKN050
     FM242100 22012G24KT P6SM -SHRA SCT050 BKN080=

USA.gov is the U.S. government's official web portal to all federal, state and local government web resources and services.